sensor_id;sensor_type;location;lat;lon;timestamp;P1;durP1;ratioP1;P2;durP2;ratioP2
41572;SDS011;27286;47.870;19.006;2023-02-19T00:01:13;2.28;;;1.05;;
41572;SDS011;27286;47.870;19.006;2023-02-19T00:03:44;4.88;;;1.00;;
41572;SDS011;27286;47.870;19.006;2023-02-19T00:06:13;3.03;;;0.85;;
41572;SDS011;27286;47.870;19.006;2023-02-19T00:08:39;1.55;;;0.65;;
41572;SDS011;27286;47.870;19.006;2023-02-19T00:11:05;5.95;;;1.77;;
41572;SDS011;27286;47.870;19.006;2023-02-19T00:13:36;2.58;;;0.63;;
41572;SDS011;27286;47.870;19.006;2023-02-19T00:16:07;1.58;;;0.43;;
41572;SDS011;27286;47.870;19.006;2023-02-19T00:18:40;1.83;;;0.73;;
41572;SDS011;27286;47.870;19.006;2023-02-19T00:21:06;1.85;;;0.50;;
41572;SDS011;27286;47.870;19.006;2023-02-19T00:23:32;1.90;;;0.50;;
41572;SDS011;27286;47.870;19.006;2023-02-19T00:26:02;2.08;;;0.60;;
41572;SDS011;27286;47.870;19.006;2023-02-19T00:28:28;1.77;;;0.52;;
41572;SDS011;27286;47.870;19.006;2023-02-19T00:30:54;2.55;;;0.40;;
41572;SDS011;27286;47.870;19.006;2023-02-19T00:33:19;1.33;;;0.60;;
41572;SDS011;27286;47.870;19.006;2023-02-19T00:35:44;2.85;;;0.70;;
41572;SDS011;27286;47.870;19.006;2023-02-19T00:38:10;1.33;;;0.40;;
41572;SDS011;27286;47.870;19.006;2023-02-19T00:40:36;1.95;;;0.57;;
41572;SDS011;27286;47.870;19.006;2023-02-19T00:43:02;1.13;;;0.40;;
41572;SDS011;27286;47.870;19.006;2023-02-19T00:45:27;1.35;;;0.30;;
41572;SDS011;27286;47.870;19.006;2023-02-19T00:47:53;1.70;;;0.40;;
41572;SDS011;27286;47.870;19.006;2023-02-19T00:50:18;1.67;;;0.40;;
41572;SDS011;27286;47.870;19.006;2023-02-19T00:52:44;1.73;;;0.40;;
41572;SDS011;27286;47.870;19.006;2023-02-19T00:55:09;1.92;;;0.40;;
41572;SDS011;27286;47.870;19.006;2023-02-19T00:57:34;1.60;;;0.30;;
41572;SDS011;27286;47.870;19.006;2023-02-19T01:00:00;1.23;;;0.20;;
41572;SDS011;27286;47.870;19.006;2023-02-19T01:02:25;0.95;;;0.30;;
41572;SDS011;27286;47.870;19.006;2023-02-19T01:04:51;1.35;;;0.40;;
41572;SDS011;27286;47.870;19.006;2023-02-19T01:07:17;1.50;;;0.30;;
41572;SDS011;27286;47.870;19.006;2023-02-19T01:09:43;1.05;;;0.40;;
41572;SDS011;27286;47.870;19.006;2023-02-19T01:12:08;0.60;;;0.20;;
41572;SDS011;27286;47.870;19.006;2023-02-19T01:14:34;1.73;;;0.20;;
41572;SDS011;27286;47.870;19.006;2023-02-19T01:16:59;1.58;;;0.40;;
41572;SDS011;27286;47.870;19.006;2023-02-19T01:19:25;1.50;;;0.25;;
41572;SDS011;27286;47.870;19.006;2023-02-19T01:21:50;1.10;;;0.40;;
41572;SDS011;27286;47.870;19.006;2023-02-19T01:24:16;0.77;;;0.20;;
41572;SDS011;27286;47.870;19.006;2023-02-19T01:26:41;1.00;;;0.32;;
41572;SDS011;27286;47.870;19.006;2023-02-19T01:29:07;1.67;;;0.50;;
41572;SDS011;27286;47.870;19.006;2023-02-19T01:31:33;1.17;;;0.30;;
41572;SDS011;27286;47.870;19.006;2023-02-19T01:33:59;1.52;;;0.40;;
41572;SDS011;27286;47.870;19.006;2023-02-19T01:36:26;1.80;;;0.40;;
41572;SDS011;27286;47.870;19.006;2023-02-19T01:38:52;1.48;;;0.40;;
41572;SDS011;27286;47.870;19.006;2023-02-19T01:41:20;1.73;;;0.32;;
41572;SDS011;27286;47.870;19.006;2023-02-19T01:44:06;1.30;;;0.40;;
41572;SDS011;27286;47.870;19.006;2023-02-19T01:46:52;0.68;;;0.30;;
41572;SDS011;27286;47.870;19.006;2023-02-19T01:49:31;0.75;;;0.22;;
41572;SDS011;27286;47.870;19.006;2023-02-19T01:52:09;1.10;;;0.30;;
41572;SDS011;27286;47.870;19.006;2023-02-19T01:54:41;0.77;;;0.20;;
41572;SDS011;27286;47.870;19.006;2023-02-19T01:57:10;1.02;;;0.30;;
41572;SDS011;27286;47.870;19.006;2023-02-19T01:59:39;0.82;;;0.30;;
41572;SDS011;27286;47.870;19.006;2023-02-19T02:02:06;1.52;;;0.20;;
41572;SDS011;27286;47.870;19.006;2023-02-19T02:04:31;0.77;;;0.47;;
41572;SDS011;27286;47.870;19.006;2023-02-19T02:06:58;1.73;;;0.70;;
41572;SDS011;27286;47.870;19.006;2023-02-19T02:09:27;1.00;;;0.30;;
41572;SDS011;27286;47.870;19.006;2023-02-19T02:12:13;1.10;;;0.40;;
41572;SDS011;27286;47.870;19.006;2023-02-19T02:14:45;1.88;;;0.45;;
41572;SDS011;27286;47.870;19.006;2023-02-19T02:17:25;0.80;;;0.30;;
41572;SDS011;27286;47.870;19.006;2023-02-19T02:31:48;0.52;;;0.20;;
41572;SDS011;27286;47.870;19.006;2023-02-19T02:33:56;0.70;;;0.30;;
41572;SDS011;27286;47.870;19.006;2023-02-19T02:36:30;1.38;;;0.30;;
41572;SDS011;27286;47.870;19.006;2023-02-19T02:38:59;1.45;;;0.40;;
41572;SDS011;27286;47.870;19.006;2023-02-19T02:41:29;1.08;;;0.35;;
41572;SDS011;27286;47.870;19.006;2023-02-19T02:43:56;0.93;;;0.30;;
41572;SDS011;27286;47.870;19.006;2023-02-19T02:46:24;0.50;;;0.20;;
41572;SDS011;27286;47.870;19.006;2023-02-19T02:48:57;1.17;;;0.20;;
41572;SDS011;27286;47.870;19.006;2023-02-19T02:51:28;0.95;;;0.30;;
41572;SDS011;27286;47.870;19.006;2023-02-19T02:56:46;1.13;;;0.30;;
41572;SDS011;27286;47.870;19.006;2023-02-19T02:59:13;1.33;;;0.30;;
41572;SDS011;27286;47.870;19.006;2023-02-19T03:04:31;1.45;;;0.30;;
41572;SDS011;27286;47.870;19.006;2023-02-19T03:07:25;1.45;;;0.30;;
41572;SDS011;27286;47.870;19.006;2023-02-19T03:09:55;1.13;;;0.40;;
41572;SDS011;27286;47.870;19.006;2023-02-19T03:12:24;1.35;;;0.30;;
41572;SDS011;27286;47.870;19.006;2023-02-19T03:15:10;1.13;;;0.30;;
41572;SDS011;27286;47.870;19.006;2023-02-19T03:18:00;1.52;;;0.30;;
41572;SDS011;27286;47.870;19.006;2023-02-19T03:20:49;1.00;;;0.50;;
41572;SDS011;27286;47.870;19.006;2023-02-19T03:23:17;0.50;;;0.20;;
41572;SDS011;27286;47.870;19.006;2023-02-19T03:25:44;0.80;;;0.40;;
41572;SDS011;27286;47.870;19.006;2023-02-19T03:28:31;0.82;;;0.25;;
41572;SDS011;27286;47.870;19.006;2023-02-19T03:31:18;1.88;;;0.40;;
41572;SDS011;27286;47.870;19.006;2023-02-19T03:33:50;1.58;;;0.30;;
41572;SDS011;27286;47.870;19.006;2023-02-19T03:36:20;0.98;;;0.38;;
41572;SDS011;27286;47.870;19.006;2023-02-19T03:39:03;0.85;;;0.30;;
41572;SDS011;27286;47.870;19.006;2023-02-19T03:41:42;0.90;;;0.30;;
41572;SDS011;27286;47.870;19.006;2023-02-19T03:47:03;2.33;;;0.68;;
41572;SDS011;27286;47.870;19.006;2023-02-19T03:49:41;1.08;;;0.38;;
41572;SDS011;27286;47.870;19.006;2023-02-19T03:54:56;0.68;;;0.20;;
41572;SDS011;27286;47.870;19.006;2023-02-19T03:57:33;0.60;;;0.30;;
41572;SDS011;27286;47.870;19.006;2023-02-19T04:00:14;0.90;;;0.28;;
41572;SDS011;27286;47.870;19.006;2023-02-19T04:05:28;0.80;;;0.20;;
41572;SDS011;27286;47.870;19.006;2023-02-19T04:07:57;0.80;;;0.20;;
41572;SDS011;27286;47.870;19.006;2023-02-19T04:10:26;0.63;;;0.20;;
41572;SDS011;27286;47.870;19.006;2023-02-19T04:12:55;1.52;;;0.45;;
41572;SDS011;27286;47.870;19.006;2023-02-19T04:15:27;2.42;;;0.40;;
41572;SDS011;27286;47.870;19.006;2023-02-19T04:18:01;1.42;;;0.57;;
41572;SDS011;27286;47.870;19.006;2023-02-19T04:20:33;1.10;;;0.30;;
41572;SDS011;27286;47.870;19.006;2023-02-19T04:23:04;1.60;;;0.60;;
41572;SDS011;27286;47.870;19.006;2023-02-19T04:25:30;0.90;;;0.22;;
41572;SDS011;27286;47.870;19.006;2023-02-19T04:27:57;3.13;;;0.30;;
41572;SDS011;27286;47.870;19.006;2023-02-19T04:30:23;1.45;;;0.25;;
41572;SDS011;27286;47.870;19.006;2023-02-19T04:32:48;1.13;;;0.30;;
41572;SDS011;27286;47.870;19.006;2023-02-19T04:35:14;0.70;;;0.20;;
41572;SDS011;27286;47.870;19.006;2023-02-19T04:37:39;2.20;;;0.22;;
41572;SDS011;27286;47.870;19.006;2023-02-19T04:40:05;0.68;;;0.20;;
41572;SDS011;27286;47.870;19.006;2023-02-19T04:42:30;0.88;;;0.20;;
41572;SDS011;27286;47.870;19.006;2023-02-19T04:44:56;0.98;;;0.30;;
41572;SDS011;27286;47.870;19.006;2023-02-19T04:47:21;0.95;;;0.35;;
41572;SDS011;27286;47.870;19.006;2023-02-19T04:49:47;0.75;;;0.28;;
41572;SDS011;27286;47.870;19.006;2023-02-19T04:52:12;0.93;;;0.30;;
41572;SDS011;27286;47.870;19.006;2023-02-19T04:54:37;1.88;;;0.40;;
41572;SDS011;27286;47.870;19.006;2023-02-19T04:57:03;0.80;;;0.22;;
41572;SDS011;27286;47.870;19.006;2023-02-19T04:59:28;0.70;;;0.20;;
41572;SDS011;27286;47.870;19.006;2023-02-19T05:01:54;1.23;;;0.40;;
41572;SDS011;27286;47.870;19.006;2023-02-19T05:04:21;1.00;;;0.30;;
41572;SDS011;27286;47.870;19.006;2023-02-19T05:06:47;1.77;;;0.38;;
41572;SDS011;27286;47.870;19.006;2023-02-19T05:09:13;2.30;;;0.70;;
41572;SDS011;27286;47.870;19.006;2023-02-19T05:11:38;1.05;;;0.20;;
41572;SDS011;27286;47.870;19.006;2023-02-19T05:14:04;0.82;;;0.30;;
41572;SDS011;27286;47.870;19.006;2023-02-19T05:16:29;0.90;;;0.30;;
41572;SDS011;27286;47.870;19.006;2023-02-19T05:18:55;1.25;;;0.30;;
41572;SDS011;27286;47.870;19.006;2023-02-19T05:21:20;2.15;;;0.20;;
41572;SDS011;27286;47.870;19.006;2023-02-19T05:23:46;0.45;;;0.20;;
41572;SDS011;27286;47.870;19.006;2023-02-19T05:26:13;1.35;;;0.30;;
41572;SDS011;27286;47.870;19.006;2023-02-19T05:28:45;0.60;;;0.30;;
41572;SDS011;27286;47.870;19.006;2023-02-19T05:31:12;0.98;;;0.20;;
41572;SDS011;27286;47.870;19.006;2023-02-19T05:33:38;2.10;;;0.30;;
41572;SDS011;27286;47.870;19.006;2023-02-19T05:36:05;1.02;;;0.30;;
41572;SDS011;27286;47.870;19.006;2023-02-19T05:38:33;0.70;;;0.20;;
41572;SDS011;27286;47.870;19.006;2023-02-19T05:43:41;7.22;;;0.70;;
41572;SDS011;27286;47.870;19.006;2023-02-19T05:46:08;0.82;;;0.50;;
41572;SDS011;27286;47.870;19.006;2023-02-19T05:48:35;2.83;;;1.00;;
41572;SDS011;27286;47.870;19.006;2023-02-19T05:51:01;20.10;;;9.63;;
41572;SDS011;27286;47.870;19.006;2023-02-19T05:53:28;7.15;;;2.05;;
41572;SDS011;27286;47.870;19.006;2023-02-19T05:55:54;7.75;;;3.53;;
41572;SDS011;27286;47.870;19.006;2023-02-19T05:58:19;6.45;;;3.33;;
41572;SDS011;27286;47.870;19.006;2023-02-19T06:00:44;6.75;;;0.82;;
41572;SDS011;27286;47.870;19.006;2023-02-19T06:03:10;3.17;;;1.30;;
41572;SDS011;27286;47.870;19.006;2023-02-19T06:05:36;4.35;;;2.20;;
41572;SDS011;27286;47.870;19.006;2023-02-19T06:08:01;3.22;;;1.10;;
41572;SDS011;27286;47.870;19.006;2023-02-19T06:10:27;2.35;;;0.75;;
41572;SDS011;27286;47.870;19.006;2023-02-19T06:12:53;2.70;;;1.00;;
41572;SDS011;27286;47.870;19.006;2023-02-19T06:15:19;3.53;;;1.27;;
41572;SDS011;27286;47.870;19.006;2023-02-19T06:17:45;2.20;;;0.50;;
41572;SDS011;27286;47.870;19.006;2023-02-19T06:20:11;2.83;;;1.50;;
41572;SDS011;27286;47.870;19.006;2023-02-19T06:22:36;1.52;;;0.50;;
41572;SDS011;27286;47.870;19.006;2023-02-19T06:25:02;0.68;;;0.22;;
41572;SDS011;27286;47.870;19.006;2023-02-19T06:27:27;1.73;;;0.70;;
41572;SDS011;27286;47.870;19.006;2023-02-19T06:29:53;3.40;;;1.20;;
41572;SDS011;27286;47.870;19.006;2023-02-19T06:32:18;6.07;;;3.00;;
41572;SDS011;27286;47.870;19.006;2023-02-19T06:34:44;3.88;;;2.30;;
41572;SDS011;27286;47.870;19.006;2023-02-19T06:37:09;3.65;;;1.20;;
41572;SDS011;27286;47.870;19.006;2023-02-19T06:39:35;20.00;;;11.27;;
41572;SDS011;27286;47.870;19.006;2023-02-19T06:42:00;19.92;;;12.82;;
41572;SDS011;27286;47.870;19.006;2023-02-19T06:44:26;9.05;;;5.10;;
41572;SDS011;27286;47.870;19.006;2023-02-19T06:46:53;5.72;;;3.22;;
41572;SDS011;27286;47.870;19.006;2023-02-19T06:49:19;2.33;;;1.00;;
41572;SDS011;27286;47.870;19.006;2023-02-19T06:51:44;3.10;;;1.00;;
41572;SDS011;27286;47.870;19.006;2023-02-19T06:54:10;5.63;;;2.92;;
41572;SDS011;27286;47.870;19.006;2023-02-19T06:56:39;8.68;;;5.75;;
41572;SDS011;27286;47.870;19.006;2023-02-19T06:59:07;7.85;;;5.05;;
41572;SDS011;27286;47.870;19.006;2023-02-19T07:01:38;4.72;;;2.45;;
41572;SDS011;27286;47.870;19.006;2023-02-19T07:04:04;5.53;;;3.08;;
41572;SDS011;27286;47.870;19.006;2023-02-19T07:06:31;2.60;;;1.33;;
41572;SDS011;27286;47.870;19.006;2023-02-19T07:08:57;3.67;;;0.88;;
41572;SDS011;27286;47.870;19.006;2023-02-19T07:11:23;4.07;;;0.68;;
41572;SDS011;27286;47.870;19.006;2023-02-19T07:14:12;1.92;;;0.60;;
41572;SDS011;27286;47.870;19.006;2023-02-19T07:16:39;3.47;;;0.90;;
41572;SDS011;27286;47.870;19.006;2023-02-19T07:19:04;2.10;;;0.90;;
41572;SDS011;27286;47.870;19.006;2023-02-19T07:21:30;4.15;;;2.03;;
41572;SDS011;27286;47.870;19.006;2023-02-19T07:23:55;3.95;;;1.52;;
41572;SDS011;27286;47.870;19.006;2023-02-19T07:26:21;1.23;;;0.40;;
41572;SDS011;27286;47.870;19.006;2023-02-19T07:28:47;2.63;;;1.20;;
41572;SDS011;27286;47.870;19.006;2023-02-19T07:31:14;3.20;;;1.15;;
41572;SDS011;27286;47.870;19.006;2023-02-19T07:33:44;4.10;;;1.90;;
41572;SDS011;27286;47.870;19.006;2023-02-19T07:36:11;3.78;;;0.88;;
41572;SDS011;27286;47.870;19.006;2023-02-19T07:38:36;2.47;;;1.10;;
41572;SDS011;27286;47.870;19.006;2023-02-19T07:41:02;3.03;;;1.27;;
41572;SDS011;27286;47.870;19.006;2023-02-19T07:43:29;2.25;;;0.93;;
41572;SDS011;27286;47.870;19.006;2023-02-19T07:45:56;2.33;;;0.80;;
41572;SDS011;27286;47.870;19.006;2023-02-19T07:48:21;2.50;;;1.17;;
41572;SDS011;27286;47.870;19.006;2023-02-19T07:50:51;3.28;;;1.35;;
41572;SDS011;27286;47.870;19.006;2023-02-19T07:53:16;2.22;;;1.08;;
41572;SDS011;27286;47.870;19.006;2023-02-19T07:55:42;2.05;;;0.73;;
41572;SDS011;27286;47.870;19.006;2023-02-19T07:58:07;2.53;;;0.70;;
41572;SDS011;27286;47.870;19.006;2023-02-19T08:00:33;1.55;;;0.73;;
41572;SDS011;27286;47.870;19.006;2023-02-19T08:02:58;2.30;;;0.68;;
41572;SDS011;27286;47.870;19.006;2023-02-19T08:05:24;1.13;;;0.30;;
41572;SDS011;27286;47.870;19.006;2023-02-19T08:07:50;1.83;;;0.88;;
41572;SDS011;27286;47.870;19.006;2023-02-19T08:10:15;2.50;;;0.60;;
41572;SDS011;27286;47.870;19.006;2023-02-19T08:12:59;3.35;;;1.55;;
41572;SDS011;27286;47.870;19.006;2023-02-19T08:15:47;3.83;;;1.00;;
41572;SDS011;27286;47.870;19.006;2023-02-19T08:18:15;1.65;;;0.70;;
41572;SDS011;27286;47.870;19.006;2023-02-19T08:20:42;1.23;;;0.32;;
41572;SDS011;27286;47.870;19.006;2023-02-19T08:23:08;2.20;;;0.70;;
41572;SDS011;27286;47.870;19.006;2023-02-19T08:25:35;1.20;;;0.43;;
41572;SDS011;27286;47.870;19.006;2023-02-19T08:28:01;2.13;;;0.80;;
41572;SDS011;27286;47.870;19.006;2023-02-19T08:30:27;1.13;;;0.45;;
41572;SDS011;27286;47.870;19.006;2023-02-19T08:32:53;0.80;;;0.35;;
41572;SDS011;27286;47.870;19.006;2023-02-19T08:35:19;2.05;;;0.88;;
41572;SDS011;27286;47.870;19.006;2023-02-19T08:37:45;1.88;;;0.60;;
41572;SDS011;27286;47.870;19.006;2023-02-19T08:40:10;1.90;;;0.70;;
41572;SDS011;27286;47.870;19.006;2023-02-19T08:42:36;1.63;;;0.52;;
41572;SDS011;27286;47.870;19.006;2023-02-19T08:45:01;3.53;;;1.50;;
41572;SDS011;27286;47.870;19.006;2023-02-19T08:47:27;1.27;;;0.60;;
41572;SDS011;27286;47.870;19.006;2023-02-19T08:49:52;1.95;;;0.85;;
41572;SDS011;27286;47.870;19.006;2023-02-19T08:52:18;2.15;;;0.60;;
41572;SDS011;27286;47.870;19.006;2023-02-19T08:54:44;2.45;;;0.50;;
41572;SDS011;27286;47.870;19.006;2023-02-19T08:57:09;5.82;;;1.02;;
41572;SDS011;27286;47.870;19.006;2023-02-19T08:59:35;2.10;;;0.52;;
41572;SDS011;27286;47.870;19.006;2023-02-19T09:02:00;0.80;;;0.20;;
41572;SDS011;27286;47.870;19.006;2023-02-19T09:04:26;5.75;;;0.80;;
41572;SDS011;27286;47.870;19.006;2023-02-19T09:06:51;3.45;;;0.93;;
41572;SDS011;27286;47.870;19.006;2023-02-19T09:09:17;3.88;;;1.58;;
41572;SDS011;27286;47.870;19.006;2023-02-19T09:11:42;4.38;;;2.03;;
41572;SDS011;27286;47.870;19.006;2023-02-19T09:14:07;3.55;;;2.10;;
41572;SDS011;27286;47.870;19.006;2023-02-19T09:16:34;4.03;;;0.80;;
41572;SDS011;27286;47.870;19.006;2023-02-19T09:19:00;2.55;;;0.65;;
41572;SDS011;27286;47.870;19.006;2023-02-19T09:21:25;1.90;;;0.65;;
41572;SDS011;27286;47.870;19.006;2023-02-19T09:23:51;3.67;;;0.60;;
41572;SDS011;27286;47.870;19.006;2023-02-19T09:26:16;1.95;;;0.80;;
41572;SDS011;27286;47.870;19.006;2023-02-19T09:28:42;3.58;;;1.00;;
41572;SDS011;27286;47.870;19.006;2023-02-19T09:31:11;5.47;;;1.33;;
41572;SDS011;27286;47.870;19.006;2023-02-19T09:33:41;3.17;;;2.05;;
41572;SDS011;27286;47.870;19.006;2023-02-19T09:36:11;4.05;;;2.38;;
41572;SDS011;27286;47.870;19.006;2023-02-19T09:38:37;6.03;;;3.83;;
41572;SDS011;27286;47.870;19.006;2023-02-19T09:41:08;10.30;;;4.70;;
41572;SDS011;27286;47.870;19.006;2023-02-19T09:43:41;7.55;;;4.65;;
41572;SDS011;27286;47.870;19.006;2023-02-19T09:48:57;8.40;;;5.72;;
41572;SDS011;27286;47.870;19.006;2023-02-19T09:51:31;6.25;;;4.93;;
41572;SDS011;27286;47.870;19.006;2023-02-19T09:54:00;9.40;;;5.97;;
41572;SDS011;27286;47.870;19.006;2023-02-19T09:56:28;8.25;;;5.93;;
41572;SDS011;27286;47.870;19.006;2023-02-19T09:58:55;10.18;;;7.25;;
41572;SDS011;27286;47.870;19.006;2023-02-19T10:01:23;11.73;;;7.38;;
41572;SDS011;27286;47.870;19.006;2023-02-19T10:03:53;11.05;;;7.50;;
41572;SDS011;27286;47.870;19.006;2023-02-19T10:06:20;11.02;;;7.97;;
41572;SDS011;27286;47.870;19.006;2023-02-19T10:08:52;10.18;;;6.80;;
41572;SDS011;27286;47.870;19.006;2023-02-19T10:11:26;10.35;;;8.10;;
41572;SDS011;27286;47.870;19.006;2023-02-19T10:13:54;10.73;;;7.53;;
41572;SDS011;27286;47.870;19.006;2023-02-19T10:16:23;11.60;;;7.53;;
41572;SDS011;27286;47.870;19.006;2023-02-19T10:18:51;10.52;;;7.57;;
41572;SDS011;27286;47.870;19.006;2023-02-19T10:21:24;11.10;;;6.35;;
41572;SDS011;27286;47.870;19.006;2023-02-19T10:23:56;10.57;;;7.65;;
41572;SDS011;27286;47.870;19.006;2023-02-19T10:26:26;9.35;;;7.32;;
41572;SDS011;27286;47.870;19.006;2023-02-19T10:28:52;9.77;;;7.43;;
41572;SDS011;27286;47.870;19.006;2023-02-19T10:31:23;8.02;;;6.60;;
41572;SDS011;27286;47.870;19.006;2023-02-19T10:33:56;9.75;;;7.22;;
41572;SDS011;27286;47.870;19.006;2023-02-19T10:36:31;12.10;;;5.78;;
41572;SDS011;27286;47.870;19.006;2023-02-19T10:38:57;10.35;;;7.43;;
41572;SDS011;27286;47.870;19.006;2023-02-19T10:41:25;10.10;;;6.35;;
41572;SDS011;27286;47.870;19.006;2023-02-19T10:44:03;10.25;;;7.82;;
41572;SDS011;27286;47.870;19.006;2023-02-19T10:46:44;11.75;;;8.57;;
41572;SDS011;27286;47.870;19.006;2023-02-19T10:49:23;13.13;;;7.53;;
41572;SDS011;27286;47.870;19.006;2023-02-19T10:52:00;9.35;;;6.80;;
41572;SDS011;27286;47.870;19.006;2023-02-19T10:54:45;10.10;;;7.75;;
41572;SDS011;27286;47.870;19.006;2023-02-19T11:00:18;9.75;;;7.07;;
41572;SDS011;27286;47.870;19.006;2023-02-19T11:05:59;8.30;;;6.45;;
41572;SDS011;27286;47.870;19.006;2023-02-19T11:08:52;10.18;;;7.78;;
41572;SDS011;27286;47.870;19.006;2023-02-19T11:11:36;10.07;;;7.45;;
41572;SDS011;27286;47.870;19.006;2023-02-19T11:14:13;9.60;;;8.15;;
41572;SDS011;27286;47.870;19.006;2023-02-19T11:19:33;8.13;;;4.65;;
41572;SDS011;27286;47.870;19.006;2023-02-19T11:24:50;9.35;;;5.13;;
41572;SDS011;27286;47.870;19.006;2023-02-19T11:27:17;7.07;;;5.25;;
41572;SDS011;27286;47.870;19.006;2023-02-19T11:29:45;5.82;;;4.55;;
41572;SDS011;27286;47.870;19.006;2023-02-19T11:35:12;5.68;;;4.35;;
41572;SDS011;27286;47.870;19.006;2023-02-19T11:37:57;10.43;;;4.53;;
41572;SDS011;27286;47.870;19.006;2023-02-19T11:40:42;5.70;;;4.20;;
41572;SDS011;27286;47.870;19.006;2023-02-19T11:46:22;5.55;;;4.05;;
41572;SDS011;27286;47.870;19.006;2023-02-19T11:54:46;4.72;;;3.70;;
41572;SDS011;27286;47.870;19.006;2023-02-19T12:00:37;8.73;;;6.00;;
41572;SDS011;27286;47.870;19.006;2023-02-19T12:03:08;7.72;;;5.90;;
41572;SDS011;27286;47.870;19.006;2023-02-19T12:14:52;7.25;;;4.60;;
41572;SDS011;27286;47.870;19.006;2023-02-19T12:20:38;4.75;;;2.40;;
41572;SDS011;27286;47.870;19.006;2023-02-19T12:31:44;1.95;;;1.42;;
41572;SDS011;27286;47.870;19.006;2023-02-19T12:42:51;1.73;;;0.45;;
41572;SDS011;27286;47.870;19.006;2023-02-19T12:45:30;1.38;;;0.30;;
41572;SDS011;27286;47.870;19.006;2023-02-19T12:50:41;1.08;;;0.45;;
41572;SDS011;27286;47.870;19.006;2023-02-19T12:55:52;3.67;;;0.40;;
41572;SDS011;27286;47.870;19.006;2023-02-19T12:58:28;1.02;;;0.35;;
41572;SDS011;27286;47.870;19.006;2023-02-19T13:00:59;3.42;;;0.40;;
41572;SDS011;27286;47.870;19.006;2023-02-19T13:03:29;2.28;;;0.50;;
41572;SDS011;27286;47.870;19.006;2023-02-19T13:08:55;1.58;;;0.30;;
41572;SDS011;27286;47.870;19.006;2023-02-19T13:11:30;6.30;;;0.40;;
41572;SDS011;27286;47.870;19.006;2023-02-19T13:16:46;0.70;;;0.30;;
41572;SDS011;27286;47.870;19.006;2023-02-19T13:19:15;1.33;;;0.50;;
41572;SDS011;27286;47.870;19.006;2023-02-19T13:21:40;2.85;;;0.73;;
41572;SDS011;27286;47.870;19.006;2023-02-19T13:24:31;1.55;;;0.30;;
41572;SDS011;27286;47.870;19.006;2023-02-19T13:32:27;15.02;;;8.95;;
41572;SDS011;27286;47.870;19.006;2023-02-19T13:37:52;3.05;;;1.70;;
41572;SDS011;27286;47.870;19.006;2023-02-19T13:43:01;3.63;;;1.00;;
41572;SDS011;27286;47.870;19.006;2023-02-19T13:45:33;1.70;;;0.50;;
41572;SDS011;27286;47.870;19.006;2023-02-19T13:53:58;0.80;;;0.30;;
41572;SDS011;27286;47.870;19.006;2023-02-19T14:04:46;0.90;;;0.25;;
41572;SDS011;27286;47.870;19.006;2023-02-19T14:14:41;2.38;;;0.10;;
41572;SDS011;27286;47.870;19.006;2023-02-19T14:17:24;0.70;;;0.20;;
41572;SDS011;27286;47.870;19.006;2023-02-19T14:20:01;3.17;;;1.55;;
41572;SDS011;27286;47.870;19.006;2023-02-19T14:23:16;1.25;;;0.28;;
41572;SDS011;27286;47.870;19.006;2023-02-19T14:25:56;0.65;;;0.20;;
41572;SDS011;27286;47.870;19.006;2023-02-19T14:28:36;1.95;;;0.20;;
41572;SDS011;27286;47.870;19.006;2023-02-19T14:31:09;1.05;;;0.10;;
41572;SDS011;27286;47.870;19.006;2023-02-19T14:33:38;1.10;;;0.30;;
41572;SDS011;27286;47.870;19.006;2023-02-19T14:38:47;0.65;;;0.17;;
41572;SDS011;27286;47.870;19.006;2023-02-19T14:41:17;0.82;;;0.20;;
41572;SDS011;27286;47.870;19.006;2023-02-19T14:43:47;1.20;;;0.28;;
41572;SDS011;27286;47.870;19.006;2023-02-19T14:48:57;1.95;;;0.20;;
41572;SDS011;27286;47.870;19.006;2023-02-19T14:51:36;1.05;;;0.10;;
41572;SDS011;27286;47.870;19.006;2023-02-19T14:56:46;1.00;;;0.47;;
41572;SDS011;27286;47.870;19.006;2023-02-19T14:59:25;2.88;;;1.30;;
41572;SDS011;27286;47.870;19.006;2023-02-19T15:01:57;1.13;;;0.30;;
41572;SDS011;27286;47.870;19.006;2023-02-19T15:04:36;4.75;;;2.22;;
41572;SDS011;27286;47.870;19.006;2023-02-19T15:07:04;0.75;;;0.28;;
41572;SDS011;27286;47.870;19.006;2023-02-19T15:09:34;1.10;;;0.25;;
41572;SDS011;27286;47.870;19.006;2023-02-19T15:12:03;1.35;;;0.40;;
41572;SDS011;27286;47.870;19.006;2023-02-19T15:14:30;1.05;;;0.30;;
41572;SDS011;27286;47.870;19.006;2023-02-19T15:16:59;0.82;;;0.20;;
41572;SDS011;27286;47.870;19.006;2023-02-19T15:19:28;1.20;;;0.30;;
41572;SDS011;27286;47.870;19.006;2023-02-19T15:21:59;1.35;;;0.40;;
41572;SDS011;27286;47.870;19.006;2023-02-19T15:24:26;1.27;;;0.47;;
41572;SDS011;27286;47.870;19.006;2023-02-19T15:26:52;3.70;;;1.40;;
41572;SDS011;27286;47.870;19.006;2023-02-19T15:29:23;1.58;;;0.30;;
41572;SDS011;27286;47.870;19.006;2023-02-19T15:31:55;0.77;;;0.20;;
41572;SDS011;27286;47.870;19.006;2023-02-19T15:34:23;0.73;;;0.20;;
41572;SDS011;27286;47.870;19.006;2023-02-19T15:36:54;0.77;;;0.30;;
41572;SDS011;27286;47.870;19.006;2023-02-19T15:39:36;1.08;;;0.20;;
41572;SDS011;27286;47.870;19.006;2023-02-19T15:42:05;2.90;;;0.80;;
41572;SDS011;27286;47.870;19.006;2023-02-19T15:52:32;1.58;;;0.30;;
41572;SDS011;27286;47.870;19.006;2023-02-19T15:55:13;1.63;;;0.70;;
41572;SDS011;27286;47.870;19.006;2023-02-19T16:01:35;1.90;;;0.67;;
41572;SDS011;27286;47.870;19.006;2023-02-19T16:03:42;1.70;;;0.32;;
41572;SDS011;27286;47.870;19.006;2023-02-19T16:06:17;2.33;;;0.65;;
41572;SDS011;27286;47.870;19.006;2023-02-19T16:13:52;2.38;;;1.05;;
41572;SDS011;27286;47.870;19.006;2023-02-19T16:16:40;0.98;;;0.45;;
41572;SDS011;27286;47.870;19.006;2023-02-19T16:19:07;3.08;;;1.20;;
41572;SDS011;27286;47.870;19.006;2023-02-19T16:21:34;4.63;;;2.22;;
41572;SDS011;27286;47.870;19.006;2023-02-19T16:24:23;1.42;;;0.32;;
41572;SDS011;27286;47.870;19.006;2023-02-19T16:26:52;0.77;;;0.20;;
41572;SDS011;27286;47.870;19.006;2023-02-19T16:29:20;1.02;;;0.40;;
41572;SDS011;27286;47.870;19.006;2023-02-19T16:32:06;2.17;;;0.50;;
41572;SDS011;27286;47.870;19.006;2023-02-19T16:34:42;1.67;;;0.20;;
41572;SDS011;27286;47.870;19.006;2023-02-19T16:40:10;1.48;;;0.30;;
41572;SDS011;27286;47.870;19.006;2023-02-19T16:45:16;1.00;;;0.20;;
41572;SDS011;27286;47.870;19.006;2023-02-19T16:47:43;0.98;;;0.30;;
41572;SDS011;27286;47.870;19.006;2023-02-19T16:50:19;0.68;;;0.10;;
41572;SDS011;27286;47.870;19.006;2023-02-19T16:55:19;0.60;;;0.10;;
41572;SDS011;27286;47.870;19.006;2023-02-19T16:57:46;1.48;;;0.40;;
41572;SDS011;27286;47.870;19.006;2023-02-19T17:00:23;4.40;;;1.02;;
41572;SDS011;27286;47.870;19.006;2023-02-19T17:02:52;1.17;;;0.40;;
41572;SDS011;27286;47.870;19.006;2023-02-19T17:05:41;2.25;;;0.30;;
41572;SDS011;27286;47.870;19.006;2023-02-19T17:08:19;1.77;;;0.30;;
41572;SDS011;27286;47.870;19.006;2023-02-19T17:10:50;1.75;;;0.20;;
41572;SDS011;27286;47.870;19.006;2023-02-19T17:13:16;2.28;;;0.60;;
41572;SDS011;27286;47.870;19.006;2023-02-19T17:15:42;1.75;;;0.57;;
41572;SDS011;27286;47.870;19.006;2023-02-19T17:18:09;2.13;;;0.50;;
41572;SDS011;27286;47.870;19.006;2023-02-19T17:20:35;2.55;;;0.68;;
41572;SDS011;27286;47.870;19.006;2023-02-19T17:23:02;1.98;;;0.60;;
41572;SDS011;27286;47.870;19.006;2023-02-19T17:25:28;0.93;;;0.20;;
41572;SDS011;27286;47.870;19.006;2023-02-19T17:27:54;2.42;;;0.73;;
41572;SDS011;27286;47.870;19.006;2023-02-19T17:30:28;3.25;;;0.70;;
41572;SDS011;27286;47.870;19.006;2023-02-19T17:32:55;2.47;;;0.77;;